Time;durP1;ratioP1;P1;durP2;ratioP2;P2;SDS_P1;SDS_P2;PMS_P1;PMS_P2;Temp;Humidity;BMP_temperature;BMP_pressure;BME280_temperature;BME280_humidity;BME280_pressure;Samples;Min_cycle;Max_cycle;Signal;HPM_P1;HPM_P2
2021/08/13 00:02:19;;;;;;;10.27;8.40;;;21.00;76.40;;;;;;4928830;29;20478;-48
2021/08/13 00:04:46;;;;;;;8.47;7.60;;;21.00;76.40;;;;;;4934002;29;20667;-48
2021/08/13 00:07:12;;;;;;;9.60;8.50;;;21.00;76.60;;;;;;4930094;29;20543;-48
2021/08/13 00:09:40;;;;;;;11.30;8.70;;;21.00;76.70;;;;;;4931954;29;20849;-48
2021/08/13 00:12:07;;;;;;;10.03;7.93;;;20.90;76.80;;;;;;4918017;29;20554;-48
2021/08/13 00:14:34;;;;;;;9.87;7.83;;;20.90;76.90;;;;;;4932109;29;21016;-48
2021/08/13 00:17:01;;;;;;;9.73;7.70;;;20.90;76.90;;;;;;4933144;29;20490;-48
2021/08/13 00:19:30;;;;;;;9.43;7.83;;;20.90;76.90;;;;;;4933645;29;20478;-48
2021/08/13 00:21:57;;;;;;;10.73;7.37;;;20.90;77.00;;;;;;4931075;29;20464;-48
2021/08/13 00:24:24;;;;;;;10.53;8.07;;;20.80;77.00;;;;;;4915624;29;20846;-48
2021/08/13 00:26:50;;;;;;;13.47;9.17;;;20.80;77.00;;;;;;4931924;29;20587;-48
2021/08/13 00:29:17;;;;;;;11.13;7.90;;;20.80;77.10;;;;;;4930418;29;20461;-48
2021/08/13 00:31:44;;;;;;;11.83;8.70;;;20.80;77.20;;;;;;4931695;29;20837;-48
2021/08/13 00:34:10;;;;;;;10.57;8.83;;;20.80;77.20;;;;;;4931140;29;20578;-48
2021/08/13 00:36:39;;;;;;;13.03;8.43;;;20.80;77.30;;;;;;4932982;29;20515;-48
2021/08/13 00:39:06;;;;;;;10.73;8.30;;;20.80;77.30;;;;;;4933099;29;20487;-48
2021/08/13 00:41:35;;;;;;;8.73;7.83;;;20.80;77.30;;;;;;4930877;29;20464;-48
2021/08/13 00:44:02;;;;;;;9.60;7.90;;;20.70;77.40;;;;;;4918386;29;21077;-48
2021/08/13 00:46:28;;;;;;;11.97;8.10;;;20.70;77.50;;;;;;4932601;29;20831;-48
2021/08/13 00:48:55;;;;;;;11.77;8.67;;;20.70;77.60;;;;;;4932521;29;20472;-48
2021/08/13 00:51:22;;;;;;;14.03;8.60;;;20.70;77.70;;;;;;4931272;29;20483;-48
2021/08/13 00:53:49;;;;;;;10.27;9.20;;;20.70;77.80;;;;;;4917835;29;20495;-48
2021/08/13 00:56:16;;;;;;;11.80;7.47;;;20.60;77.90;;;;;;4913599;29;20459;-48
2021/08/13 00:58:43;;;;;;;9.90;8.23;;;20.60;78.00;;;;;;4923593;29;20468;-48
2021/08/13 01:01:11;;;;;;;12.93;8.33;;;20.60;78.10;;;;;;4916655;29;20488;-48
2021/08/13 01:03:39;;;;;;;11.00;8.43;;;20.60;78.10;;;;;;4930801;29;20504;-48
2021/08/13 01:06:08;;;;;;;10.10;7.93;;;20.60;78.20;;;;;;4929273;29;20470;-48
2021/08/13 01:08:35;;;;;;;13.77;9.30;;;20.60;78.30;;;;;;4916034;29;20471;-48
2021/08/13 01:11:31;;;;;;;12.27;8.30;;;20.60;78.40;;;;;;4934549;29;20496;-48
2021/08/13 01:14:23;;;;;;;11.70;8.67;;;20.60;78.50;;;;;;4931075;29;20496;-48
2021/08/13 01:16:52;;;;;;;8.80;7.90;;;20.60;78.40;;;;;;4929444;29;20495;-48
2021/08/13 01:19:54;;;;;;;14.37;8.87;;;20.60;78.10;;;;;;4931461;29;20549;-48
2021/08/13 01:22:41;;;;;;;10.30;8.60;;;20.60;78.00;;;;;;4913533;29;21080;-48
2021/08/13 01:25:09;;;;;;;12.27;7.83;;;20.50;77.90;;;;;;4931443;29;20448;-48
2021/08/13 01:27:40;;;;;;;12.53;9.00;;;20.50;77.90;;;;;;4930704;29;20567;-48
2021/08/13 01:30:12;;;;;;;13.00;8.80;;;20.50;77.90;;;;;;4932880;29;20490;-48
2021/08/13 01:32:44;;;;;;;14.03;9.93;;;20.50;78.10;;;;;;4929823;29;20456;-48
2021/08/13 01:35:16;;;;;;;8.93;8.00;;;20.40;78.10;;;;;;4929132;29;20494;-48
2021/08/13 01:37:50;;;;;;;11.03;8.87;;;20.40;78.30;;;;;;4911755;29;20483;-48
2021/08/13 01:40:18;;;;;;;12.70;8.57;;;20.40;78.40;;;;;;4913396;29;20466;-48
2021/08/13 01:42:47;;;;;;;12.40;8.77;;;20.30;78.40;;;;;;4927092;29;20474;-48
2021/08/13 01:45:22;;;;;;;10.67;8.23;;;20.30;78.60;;;;;;4931060;29;20871;-48
2021/08/13 01:47:52;;;;;;;9.00;8.10;;;20.30;78.70;;;;;;4931011;29;20469;-48
2021/08/13 01:50:20;;;;;;;10.30;8.13;;;20.30;78.80;;;;;;4930353;29;20468;-48
2021/08/13 01:52:50;;;;;;;10.07;8.50;;;20.30;78.90;;;;;;4932691;29;20478;-48
2021/08/13 01:55:18;;;;;;;10.00;8.97;;;20.30;78.90;;;;;;4931373;29;20492;-48
2021/08/13 01:57:45;;;;;;;8.60;7.33;;;20.30;79.00;;;;;;4930831;29;20464;-48
2021/08/13 02:00:18;;;;;;;9.27;8.27;;;20.20;79.00;;;;;;4932807;29;20487;-48
2021/08/13 02:02:45;;;;;;;11.23;8.27;;;20.30;79.00;;;;;;4929066;29;20467;-48
2021/08/13 02:05:15;;;;;;;12.87;8.37;;;20.20;79.00;;;;;;4929309;29;20880;-48
2021/08/13 02:07:42;;;;;;;9.80;8.60;;;20.20;79.10;;;;;;4929455;29;20455;-48
2021/08/13 02:10:11;;;;;;;9.90;8.30;;;20.20;79.10;;;;;;4931731;29;20464;-48
2021/08/13 02:12:38;;;;;;;10.57;8.10;;;20.20;79.20;;;;;;4914910;29;20471;-48
2021/08/13 02:15:07;;;;;;;13.73;8.93;;;20.20;79.30;;;;;;4930372;29;20491;-48
2021/08/13 02:17:39;;;;;;;11.77;8.90;;;20.20;79.30;;;;;;4929020;29;20495;-48
2021/08/13 02:20:12;;;;;;;9.57;8.57;;;20.20;79.40;;;;;;4927216;29;20451;-48
2021/08/13 02:22:39;;;;;;;10.70;7.87;;;20.20;79.40;;;;;;4917745;29;20556;-48
2021/08/13 02:25:06;;;;;;;12.23;8.43;;;20.20;79.50;;;;;;4915298;29;20461;-48
2021/08/13 02:27:34;;;;;;;12.93;7.97;;;20.10;79.60;;;;;;4912309;29;20829;-48
2021/08/13 02:30:00;;;;;;;9.37;8.37;;;20.10;79.70;;;;;;4930172;29;20460;-48
2021/08/13 02:32:28;;;;;;;11.57;8.67;;;20.10;79.80;;;;;;4913449;29;20476;-49
2021/08/13 02:34:55;;;;;;;11.33;9.30;;;20.10;79.80;;;;;;4931085;29;20496;-48
2021/08/13 02:37:41;;;;;;;10.17;8.00;;;20.10;79.80;;;;;;4928208;29;20456;-48
2021/08/13 02:40:32;;;;;;;11.40;8.47;;;20.10;79.90;;;;;;4928234;29;20459;-49
2021/08/13 02:43:04;;;;;;;11.00;7.97;;;20.10;80.00;;;;;;4927003;29;20484;-49
2021/08/13 02:45:35;;;;;;;11.37;8.60;;;20.10;80.00;;;;;;4915200;29;20970;-49
2021/08/13 02:48:02;;;;;;;8.20;6.73;;;20.10;79.90;;;;;;4928681;29;20957;-49
2021/08/13 02:50:32;;;;;;;9.97;7.83;;;20.10;79.80;;;;;;4928633;29;20489;-49
2021/08/13 02:53:10;;;;;;;12.57;8.67;;;20.10;79.70;;;;;;4931750;29;21371;-49
2021/08/13 02:55:51;;;;;;;14.40;9.53;;;20.10;79.70;;;;;;4928991;29;20503;-49
2021/08/13 02:58:21;;;;;;;9.83;7.90;;;20.10;79.60;;;;;;4930517;29;20463;-48
2021/08/13 03:00:50;;;;;;;8.43;7.53;;;20.10;79.60;;;;;;4927102;29;20494;-48
2021/08/13 03:03:18;;;;;;;12.37;9.50;;;20.10;79.60;;;;;;4915240;29;21045;-48
2021/08/13 03:05:49;;;;;;;9.60;8.33;;;20.10;79.60;;;;;;4927784;28;20468;-48
2021/08/13 03:08:21;;;;;;;9.70;8.37;;;20.10;79.70;;;;;;4930263;29;20460;-48
2021/08/13 03:10:48;;;;;;;10.17;8.20;;;20.10;79.70;;;;;;4930004;29;20472;-48
2021/08/13 03:13:17;;;;;;;10.10;8.70;;;20.10;79.80;;;;;;4927715;29;20480;-48
2021/08/13 03:15:45;;;;;;;10.40;8.60;;;20.10;79.80;;;;;;4914908;29;20491;-48
2021/08/13 03:18:13;;;;;;;10.40;8.90;;;20.10;79.90;;;;;;4931746;29;20551;-48
2021/08/13 03:20:40;;;;;;;9.93;7.63;;;20.10;79.90;;;;;;4931097;29;20460;-48
2021/08/13 03:23:08;;;;;;;10.40;9.13;;;20.10;80.00;;;;;;4929284;29;20807;-48
2021/08/13 03:25:38;;;;;;;9.17;8.00;;;20.10;80.00;;;;;;4929212;29;20500;-48
2021/08/13 03:28:07;;;;;;;9.93;8.60;;;20.10;80.10;;;;;;4929001;29;20464;-48
2021/08/13 03:30:39;;;;;;;11.90;9.40;;;20.10;80.20;;;;;;4929542;29;20827;-48
2021/08/13 03:33:09;;;;;;;14.67;8.50;;;20.10;80.20;;;;;;4931358;29;20456;-48
2021/08/13 03:35:37;;;;;;;11.43;9.67;;;20.10;80.10;;;;;;4933486;29;20574;-48
2021/08/13 03:38:04;;;;;;;13.50;9.27;;;20.20;79.90;;;;;;4935408;29;20464;-48
2021/08/13 03:40:31;;;;;;;10.83;8.97;;;20.20;79.70;;;;;;4935012;29;20459;-48
2021/08/13 03:42:58;;;;;;;11.80;9.17;;;20.20;79.80;;;;;;4920589;29;20472;-48
2021/08/13 03:45:25;;;;;;;13.43;8.73;;;20.20;79.80;;;;;;4924539;29;20980;-48
2021/08/13 03:47:52;;;;;;;10.07;8.67;;;20.20;79.90;;;;;;4931354;29;20468;-48
2021/08/13 03:50:18;;;;;;;10.57;8.90;;;20.20;79.90;;;;;;4934326;29;20957;-48
2021/08/13 03:52:45;;;;;;;11.63;9.87;;;20.30;80.10;;;;;;4932363;29;20482;-48
2021/08/13 03:55:13;;;;;;;13.83;9.93;;;20.30;80.20;;;;;;4930557;29;20933;-48
2021/08/13 03:57:41;;;;;;;11.53;9.37;;;20.30;80.30;;;;;;4913853;29;20464;-48
2021/08/13 04:00:11;;;;;;;13.87;9.17;;;20.30;80.30;;;;;;4930023;29;20488;-48
2021/08/13 04:02:38;;;;;;;13.03;10.20;;;20.30;80.40;;;;;;4931614;29;20460;-48
2021/08/13 04:05:06;;;;;;;15.37;10.17;;;20.30;80.40;;;;;;4933793;29;20552;-48
2021/08/13 04:07:33;;;;;;;10.97;9.37;;;20.30;80.40;;;;;;4932585;29;20468;-48
2021/08/13 04:09:59;;;;;;;11.40;9.60;;;20.30;80.40;;;;;;4930600;29;20830;-48
2021/08/13 04:12:26;;;;;;;12.43;10.17;;;20.30;80.50;;;;;;4900975;29;20863;-48
2021/08/13 04:14:53;;;;;;;10.23;8.70;;;20.30;80.60;;;;;;4930682;29;20482;-48
2021/08/13 04:17:20;;;;;;;16.20;10.30;;;20.30;80.70;;;;;;4929916;29;20726;-48
2021/08/13 04:19:48;;;;;;;11.67;9.70;;;20.30;80.70;;;;;;4933560;29;20471;-48
2021/08/13 04:22:17;;;;;;;13.53;9.80;;;20.30;80.80;;;;;;4913384;29;20464;-48
2021/08/13 04:24:44;;;;;;;14.90;10.17;;;20.30;80.90;;;;;;4930708;29;20548;-48
2021/08/13 04:27:10;;;;;;;12.83;9.63;;;20.30;80.90;;;;;;4933503;29;20462;-48
2021/08/13 04:29:37;;;;;;;13.37;9.53;;;20.30;81.00;;;;;;4931944;29;20507;-48
2021/08/13 04:32:05;;;;;;;13.07;10.60;;;20.30;81.00;;;;;;4930624;29;20475;-48
2021/08/13 04:34:31;;;;;;;12.97;9.23;;;20.30;81.10;;;;;;4933581;29;20519;-48
2021/08/13 04:36:58;;;;;;;11.17;10.00;;;20.30;81.10;;;;;;4933703;29;20460;-48
2021/08/13 04:39:25;;;;;;;12.13;10.40;;;20.30;81.10;;;;;;4917798;29;20685;-48
2021/08/13 04:41:51;;;;;;;12.47;9.40;;;20.30;81.10;;;;;;4931970;29;20474;-48
2021/08/13 04:44:18;;;;;;;10.90;8.83;;;20.30;81.00;;;;;;4930488;29;20468;-47
2021/08/13 04:46:45;;;;;;;15.53;9.43;;;20.30;81.00;;;;;;4916477;29;20801;-48
2021/08/13 04:49:15;;;;;;;9.83;8.83;;;20.30;81.00;;;;;;4932256;29;20467;-48
2021/08/13 04:51:42;;;;;;;11.40;10.20;;;20.30;81.00;;;;;;4930366;29;20955;-48
2021/08/13 04:54:10;;;;;;;10.20;9.03;;;20.30;81.00;;;;;;4932130;29;20464;-48
2021/08/13 04:56:39;;;;;;;11.93;8.43;;;20.40;80.90;;;;;;4932292;29;20511;-48
2021/08/13 04:59:06;;;;;;;10.73;8.83;;;20.40;80.70;;;;;;4931637;29;20558;-48
2021/08/13 05:01:33;;;;;;;11.27;8.47;;;20.40;80.80;;;;;;4929607;29;20479;-48
2021/08/13 05:04:01;;;;;;;12.10;10.37;;;20.40;80.80;;;;;;4930495;29;20466;-48
2021/08/13 05:06:27;;;;;;;10.87;9.17;;;20.40;80.80;;;;;;4933303;29;20466;-48
2021/08/13 05:08:54;;;;;;;11.57;8.97;;;20.40;80.80;;;;;;4930935;29;20460;-48
2021/08/13 05:11:21;;;;;;;11.63;9.80;;;20.40;80.80;;;;;;4927789;29;20946;-48
2021/08/13 05:13:47;;;;;;;11.53;8.60;;;20.40;80.90;;;;;;4931756;29;20833;-48
2021/08/13 05:16:14;;;;;;;11.00;9.23;;;20.50;80.90;;;;;;4930020;29;20858;-48
2021/08/13 05:18:41;;;;;;;12.20;9.57;;;20.50;81.00;;;;;;4928149;29;20475;-48
2021/08/13 05:21:08;;;;;;;12.27;9.17;;;20.50;80.90;;;;;;4931459;29;20456;-48
2021/08/13 05:23:35;;;;;;;13.80;9.50;;;20.50;80.90;;;;;;4931221;29;20938;-48
2021/08/13 05:26:03;;;;;;;11.57;9.83;;;20.50;80.90;;;;;;4932321;29;20464;-48
2021/08/13 05:28:34;;;;;;;12.97;9.87;;;20.50;81.00;;;;;;4914593;29;20559;-48
2021/08/13 05:31:01;;;;;;;12.73;9.90;;;20.60;80.90;;;;;;4929684;29;20463;-48
2021/08/13 05:33:28;;;;;;;13.27;10.47;;;20.60;80.80;;;;;;4930079;29;20547;-48
2021/08/13 05:35:55;;;;;;;11.70;9.73;;;20.60;80.70;;;;;;4928935;29;20906;-48
2021/08/13 05:38:22;;;;;;;13.57;9.20;;;20.60;80.60;;;;;;4930190;29;20466;-48
2021/08/13 05:40:48;;;;;;;14.37;10.23;;;20.70;80.60;;;;;;4930167;29;20476;-48
2021/08/13 05:43:15;;;;;;;10.90;8.97;;;20.70;80.70;;;;;;4928452;29;20463;-48
2021/08/13 05:45:42;;;;;;;13.80;9.70;;;20.80;80.60;;;;;;4911917;29;20463;-48
2021/08/13 05:48:09;;;;;;;12.90;9.40;;;20.80;80.60;;;;;;4929915;29;20460;-48
2021/08/13 05:50:36;;;;;;;9.87;8.80;;;20.90;80.40;;;;;;4932046;29;20483;-48
2021/08/13 05:53:02;;;;;;;13.13;10.13;;;20.90;80.40;;;;;;4930604;29;20551;-48
2021/08/13 05:55:29;;;;;;;14.80;10.20;;;21.00;80.40;;;;;;4930100;29;21001;-48
2021/08/13 05:57:56;;;;;;;12.57;9.97;;;21.10;79.80;;;;;;4929858;29;21280;-48
2021/08/13 06:00:23;;;;;;;14.53;9.90;;;21.20;79.40;;;;;;4925803;29;20517;-48
2021/08/13 06:03:03;;;;;;;14.70;10.87;;;21.20;79.20;;;;;;4931827;29;20452;-48
2021/08/13 06:05:31;;;;;;;12.93;11.00;;;21.30;79.10;;;;;;4929927;29;20459;-48
2021/08/13 06:07:57;;;;;;;11.60;9.80;;;21.30;79.00;;;;;;4930970;29;20460;-48
2021/08/13 06:10:26;;;;;;;13.80;9.90;;;21.40;78.80;;;;;;4930991;29;20821;-48
2021/08/13 06:12:53;;;;;;;13.00;9.77;;;21.40;78.90;;;;;;4932526;29;20873;-48
2021/08/13 06:15:20;;;;;;;14.53;11.30;;;21.50;78.50;;;;;;4929029;29;20495;-48
2021/08/13 06:17:47;;;;;;;11.33;10.20;;;21.60;78.30;;;;;;4933869;29;20841;-48
2021/08/13 06:20:19;;;;;;;11.33;9.90;;;21.60;78.30;;;;;;4927897;29;20550;-48
2021/08/13 06:22:47;;;;;;;13.37;9.33;;;21.60;78.20;;;;;;4927863;29;20971;-48
2021/08/13 06:25:15;;;;;;;14.00;10.43;;;21.60;78.30;;;;;;4928872;29;20815;-48
2021/08/13 06:27:44;;;;;;;16.10;10.70;;;21.70;78.40;;;;;;4930376;29;20874;-48
2021/08/13 06:30:12;;;;;;;17.67;11.20;;;21.70;78.20;;;;;;4931264;29;20510;-48
2021/08/13 06:32:39;;;;;;;17.13;11.17;;;21.80;78.20;;;;;;4928920;29;20481;-48
2021/08/13 06:35:10;;;;;;;12.63;9.90;;;21.80;78.10;;;;;;4927432;29;20587;-48
2021/08/13 06:37:52;;;;;;;12.10;10.47;;;21.90;78.00;;;;;;4928623;29;20802;-48
2021/08/13 06:40:21;;;;;;;13.57;11.17;;;21.90;77.90;;;;;;4929257;29;20459;-48
2021/08/13 06:42:49;;;;;;;14.00;10.27;;;22.00;77.80;;;;;;4927712;29;20467;-48
2021/08/13 06:45:19;;;;;;;11.80;8.60;;;22.00;77.90;;;;;;4930854;29;20464;-48
2021/08/13 06:47:45;;;;;;;12.10;9.10;;;22.10;77.90;;;;;;4929828;29;21422;-48
2021/08/13 06:50:14;;;;;;;12.47;9.87;;;22.10;77.80;;;;;;4930303;29;20548;-48
2021/08/13 06:52:41;;;;;;;14.07;10.27;;;22.20;77.70;;;;;;4929108;29;20459;-48
2021/08/13 06:55:09;;;;;;;10.63;9.30;;;22.20;77.90;;;;;;4929463;29;20486;-48
2021/08/13 06:57:36;;;;;;;13.97;9.60;;;22.30;77.70;;;;;;4928726;29;21178;-48
2021/08/13 07:00:04;;;;;;;11.07;9.90;;;22.40;77.20;;;;;;4929310;29;20988;-48
2021/08/13 07:02:31;;;;;;;13.67;10.27;;;22.60;76.50;;;;;;4928321;29;20479;-48
2021/08/13 07:04:58;;;;;;;13.67;10.10;;;22.70;76.00;;;;;;4928099;29;20556;-48
2021/08/13 07:07:24;;;;;;;11.30;9.23;;;22.90;75.60;;;;;;4927020;29;20463;-48
2021/08/13 07:09:51;;;;;;;13.93;9.03;;;23.00;75.20;;;;;;4927192;29;20788;-48
2021/08/13 07:12:18;;;;;;;10.33;8.83;;;23.20;74.40;;;;;;4926442;29;20467;-48
2021/08/13 07:14:45;;;;;;;10.80;8.33;;;23.30;74.50;;;;;;4930231;29;20952;-48
2021/08/13 07:17:12;;;;;;;12.00;9.80;;;23.40;73.80;;;;;;4929758;29;20483;-48
2021/08/13 07:19:39;;;;;;;15.10;9.43;;;23.50;73.20;;;;;;4928708;29;20463;-48
2021/08/13 07:22:06;;;;;;;10.73;9.53;;;23.60;73.10;;;;;;4928493;29;20456;-48
2021/08/13 07:24:32;;;;;;;18.87;10.40;;;23.60;73.30;;;;;;4925951;29;20459;-48
2021/08/13 07:26:59;;;;;;;10.40;9.40;;;23.70;73.20;;;;;;4927068;29;20482;-48
2021/08/13 07:29:26;;;;;;;11.17;9.77;;;23.70;73.30;;;;;;4925997;29;20463;-48
2021/08/13 07:31:55;;;;;;;12.03;8.60;;;23.70;73.20;;;;;;4926899;29;20471;-48
2021/08/13 07:34:23;;;;;;;10.87;9.30;;;23.80;72.50;;;;;;4930978;29;20995;-48
2021/08/13 07:36:49;;;;;;;10.73;9.53;;;23.90;72.10;;;;;;4923009;29;20495;-48
2021/08/13 07:39:35;;;;;;;12.27;10.10;;;24.00;71.70;;;;;;4927470;29;20495;-48
2021/08/13 07:42:03;;;;;;;10.67;9.07;;;24.20;71.00;;;;;;4926175;29;20820;-48
2021/08/13 07:44:30;;;;;;;12.80;9.83;;;24.30;71.20;;;;;;4908795;29;20459;-47
2021/08/13 07:47:11;;;;;;;14.50;11.10;;;24.40;70.90;;;;;;4915458;29;20467;-48
2021/08/13 07:49:38;;;;;;;9.90;8.27;;;24.50;70.50;;;;;;4928216;29;20470;-48
2021/08/13 07:52:05;;;;;;;11.70;9.40;;;24.60;70.40;;;;;;4912075;29;20467;-48
2021/08/13 07:54:31;;;;;;;11.00;9.80;;;24.70;70.60;;;;;;4928710;29;20961;-48
2021/08/13 07:56:58;;;;;;;12.00;9.30;;;24.80;70.40;;;;;;4928965;29;20510;-47
2021/08/13 07:59:25;;;;;;;12.97;9.17;;;25.00;70.00;;;;;;4931050;29;20480;-48
2021/08/13 08:01:52;;;;;;;11.60;10.23;;;25.00;70.20;;;;;;4924207;29;20495;-47
2021/08/13 08:04:19;;;;;;;13.37;9.60;;;25.10;70.20;;;;;;4909985;29;20471;-47
2021/08/13 08:06:45;;;;;;;10.93;9.50;;;25.20;70.10;;;;;;4924629;29;20990;-47
2021/08/13 08:09:12;;;;;;;12.63;8.77;;;25.40;69.70;;;;;;4913594;29;20458;-47
2021/08/13 08:11:39;;;;;;;16.77;10.50;;;25.50;69.40;;;;;;4925308;29;20486;-47
2021/08/13 08:14:08;;;;;;;13.30;10.00;;;25.70;68.40;;;;;;4913658;29;21035;-47
2021/08/13 08:16:35;;;;;;;12.47;9.83;;;25.70;68.30;;;;;;4925392;29;20497;-47
2021/08/13 08:19:02;;;;;;;13.47;10.03;;;25.80;68.20;;;;;;4931761;29;20822;-47
2021/08/13 08:21:29;;;;;;;13.33;10.10;;;26.00;68.10;;;;;;4931615;29;20878;-47
2021/08/13 08:23:56;;;;;;;13.30;10.97;;;26.10;67.40;;;;;;4932951;29;20459;-48
2021/08/13 08:26:22;;;;;;;12.80;9.03;;;26.30;67.00;;;;;;4927996;29;20462;-48
2021/08/13 08:28:49;;;;;;;13.60;9.80;;;26.50;66.90;;;;;;4914251;29;20467;-48
2021/08/13 08:31:16;;;;;;;22.20;11.03;;;26.60;67.00;;;;;;4914398;29;21128;-45
2021/08/13 08:33:44;;;;;;;13.70;9.37;;;26.70;66.40;;;;;;4929847;29;20480;-48
2021/08/13 08:36:10;;;;;;;12.83;9.57;;;26.90;65.80;;;;;;4933111;29;21052;-48
2021/08/13 08:38:37;;;;;;;11.10;9.30;;;27.00;65.50;;;;;;4933326;29;20452;-48
2021/08/13 08:41:05;;;;;;;12.03;9.80;;;27.20;65.20;;;;;;4931001;29;20440;-48
2021/08/13 08:43:33;;;;;;;12.63;9.83;;;27.40;64.90;;;;;;4934375;29;20208;-48
2021/08/13 08:46:01;;;;;;;9.67;7.97;;;27.50;64.30;;;;;;4921241;29;20991;-47
2021/08/13 08:48:37;;;;;;;8.83;7.93;;;27.80;63.40;;;;;;4932857;29;20677;-47
2021/08/13 08:51:06;;;;;;;9.17;7.67;;;27.90;63.10;;;;;;4932468;29;20459;-47
2021/08/13 08:53:34;;;;;;;10.80;9.50;;;28.10;62.10;;;;;;4932098;29;20505;-47
2021/08/13 08:56:02;;;;;;;11.97;8.60;;;28.20;61.60;;;;;;4933332;29;20275;-47
2021/08/13 08:58:31;;;;;;;10.70;9.03;;;28.40;61.10;;;;;;4932593;29;20290;-47
2021/08/13 09:00:59;;;;;;;9.40;8.30;;;28.50;60.10;;;;;;4930297;29;20318;-47
2021/08/13 09:03:27;;;;;;;11.57;8.40;;;28.70;59.00;;;;;;4918449;29;20452;-47
2021/08/13 09:05:54;;;;;;;9.53;8.10;;;28.80;58.60;;;;;;4918346;29;20208;-47
2021/08/13 09:08:21;;;;;;;10.13;8.03;;;28.80;58.70;;;;;;4934692;29;20222;-47
2021/08/13 09:10:48;;;;;;;12.20;10.03;;;28.80;58.80;;;;;;4933844;29;20218;-47
2021/08/13 09:13:21;;;;;;;10.60;8.40;;;28.90;58.60;;;;;;4927396;29;20306;-47
2021/08/13 09:15:48;;;;;;;10.37;9.30;;;29.10;58.60;;;;;;4931492;29;20223;-48
2021/08/13 09:18:23;;;;;;;9.18;8.32;;;29.30;58.20;;;;;;4926880;29;20717;-47
2021/08/13 09:20:57;;;;;;;10.73;7.75;;;29.50;57.50;;;;;;4927406;29;20215;-48
2021/08/13 09:23:37;;;;;;;9.45;8.38;;;29.70;57.10;;;;;;4929333;29;20578;-47
2021/08/13 09:26:06;;;;;;;10.43;7.43;;;30.00;57.00;;;;;;4928180;29;20203;-47
2021/08/13 09:28:41;;;;;;;9.52;8.07;;;30.30;56.30;;;;;;4928979;29;20298;-48
2021/08/13 09:31:19;;;;;;;8.35;7.65;;;30.50;55.80;;;;;;4913709;29;20211;-47
2021/08/13 09:33:49;;;;;;;10.45;8.00;;;30.70;55.10;;;;;;4912309;29;20243;-48
2021/08/13 09:36:18;;;;;;;12.43;7.95;;;30.90;54.10;;;;;;4927828;29;20231;-47
2021/08/13 09:38:47;;;;;;;10.02;8.30;;;31.10;53.80;;;;;;4916726;29;20215;-48
2021/08/13 09:41:17;;;;;;;10.15;8.95;;;31.30;53.40;;;;;;4927697;29;20212;-48
2021/08/13 09:44:01;;;;;;;19.00;8.68;;;31.40;53.50;;;;;;4928300;29;20211;-48
2021/08/13 09:46:29;;;;;;;11.57;9.77;;;31.40;54.00;;;;;;4929276;29;20203;-48
2021/08/13 09:49:12;;;;;;;10.80;8.00;;;31.60;53.50;;;;;;4931079;29;20677;-48
2021/08/13 09:51:40;;;;;;;10.48;9.00;;;31.90;52.30;;;;;;4931231;29;20296;-48
2021/08/13 09:54:10;;;;;;;9.73;8.57;;;32.20;51.90;;;;;;4930807;29;20215;-48
2021/08/13 09:56:39;;;;;;;9.02;8.00;;;32.40;52.00;;;;;;4930025;29;20233;-48
2021/08/13 09:59:07;;;;;;;14.50;8.73;;;32.50;51.50;;;;;;4929506;29;20212;-48
2021/08/13 10:01:36;;;;;;;9.35;8.35;;;32.40;51.30;;;;;;4930087;29;20232;-48
2021/08/13 10:04:05;;;;;;;8.45;7.55;;;32.40;51.70;;;;;;4931278;29;20628;-48
2021/08/13 10:06:32;;;;;;;10.23;8.25;;;32.40;51.90;;;;;;4929949;29;20208;-48
2021/08/13 10:08:59;;;;;;;10.38;8.10;;;32.50;51.70;;;;;;4908837;29;20207;-48
2021/08/13 10:11:26;;;;;;;11.30;8.75;;;32.50;51.80;;;;;;4928549;29;20687;-48
2021/08/13 10:13:53;;;;;;;9.63;8.70;;;32.70;51.80;;;;;;4926689;29;20713;-48
2021/08/13 10:16:22;;;;;;;8.88;7.97;;;33.00;51.20;;;;;;4926691;29;20239;-48
2021/08/13 10:18:56;;;;;;;11.80;8.82;;;33.30;50.60;;;;;;4922046;29;20595;-48
2021/08/13 10:21:23;;;;;;;10.98;8.40;;;33.50;49.60;;;;;;4927978;29;20215;-49
2021/08/13 10:23:52;;;;;;;8.63;7.60;;;33.60;49.70;;;;;;4930772;29;20604;-48
2021/08/13 10:26:20;;;;;;;9.52;8.18;;;33.70;49.70;;;;;;4930607;29;20218;-48
2021/08/13 10:28:48;;;;;;;9.88;8.60;;;33.70;49.80;;;;;;4911308;29;20219;-49
2021/08/13 10:31:20;;;;;;;8.70;7.80;;;33.80;49.10;;;;;;4925448;29;20579;-49
2021/08/13 10:33:53;;;;;;;8.63;6.35;;;33.80;48.70;;;;;;4928295;29;20212;-48
2021/08/13 10:36:20;;;;;;;9.68;8.20;;;33.70;48.10;;;;;;4929320;29;20231;-48
2021/08/13 10:38:50;;;;;;;7.43;6.70;;;33.50;48.00;;;;;;4928384;29;20243;-48
2021/08/13 10:41:25;;;;;;;8.02;7.22;;;33.30;49.30;;;;;;4930717;29;20546;-48
2021/08/13 10:43:54;;;;;;;8.68;7.78;;;33.00;49.60;;;;;;4929402;29;20227;-48
2021/08/13 10:46:28;;;;;;;7.70;6.90;;;32.70;50.00;;;;;;4931587;29;20230;-48
2021/08/13 10:48:55;;;;;;;8.48;7.68;;;32.50;49.60;;;;;;4929220;29;20229;-48
2021/08/13 10:51:28;;;;;;;10.07;7.78;;;32.40;50.00;;;;;;4929763;29;20563;-48
2021/08/13 10:54:08;;;;;;;8.05;7.25;;;32.40;50.30;;;;;;4912576;29;20208;-48
2021/08/13 10:56:39;;;;;;;8.50;7.25;;;32.40;50.30;;;;;;4928263;29;20563;-48
2021/08/13 10:59:06;;;;;;;8.40;7.13;;;32.40;50.20;;;;;;4931127;29;20204;-48
2021/08/13 11:01:33;;;;;;;11.80;7.40;;;32.50;49.70;;;;;;4923755;29;20238;-48
2021/08/13 11:04:00;;;;;;;8.93;7.57;;;32.50;50.10;;;;;;4927170;29;20279;-48
2021/08/13 11:06:36;;;;;;;8.93;6.85;;;32.40;50.40;;;;;;4929459;29;20601;-48
2021/08/13 11:09:06;;;;;;;9.35;7.50;;;32.20;50.50;;;;;;4929504;29;20215;-47
2021/08/13 11:11:53;;;;;;;7.70;7.00;;;32.00;50.80;;;;;;4931492;29;20677;-47
2021/08/13 11:14:25;;;;;;;10.15;8.07;;;31.90;50.90;;;;;;4930415;29;20218;-47
2021/08/13 11:16:55;;;;;;;7.63;6.93;;;31.70;51.30;;;;;;4925968;29;20277;-49
2021/08/13 11:19:23;;;;;;;9.00;7.60;;;31.60;51.80;;;;;;4928132;29;20220;-48
2021/08/13 11:21:59;;;;;;;8.07;6.85;;;31.50;52.90;;;;;;4926391;29;20204;-48
2021/08/13 11:24:46;;;;;;;9.30;7.15;;;31.40;52.80;;;;;;4927731;29;20581;-48
2021/08/13 11:27:14;;;;;;;9.10;8.30;;;31.30;52.50;;;;;;4930089;29;20212;-48
2021/08/13 11:29:45;;;;;;;10.40;7.72;;;31.20;52.80;;;;;;4932105;29;20283;-47
2021/08/13 11:32:14;;;;;;;9.20;7.93;;;31.10;53.00;;;;;;4928289;29;20212;-48
2021/08/13 11:34:51;;;;;;;8.07;7.28;;;31.10;53.40;;;;;;4930933;29;20306;-48
2021/08/13 11:37:30;;;;;;;10.32;8.00;;;31.00;52.60;;;;;;4926359;29;20235;-48
2021/08/13 11:40:02;;;;;;;14.48;8.65;;;31.00;52.70;;;;;;4926267;29;20235;-49
2021/08/13 11:42:32;;;;;;;9.57;7.90;;;30.90;53.80;;;;;;4913500;29;20210;-49
2021/08/13 11:45:08;;;;;;;9.70;7.85;;;30.80;52.90;;;;;;4930680;29;20578;-49
2021/08/13 11:47:36;;;;;;;10.23;7.97;;;30.70;52.80;;;;;;4931373;29;20222;-49
2021/08/13 11:50:08;;;;;;;9.27;7.43;;;30.70;53.10;;;;;;4930721;29;20227;-49
2021/08/13 11:52:37;;;;;;;8.88;8.00;;;30.70;53.80;;;;;;4927326;29;20208;-49
2021/08/13 11:55:26;;;;;;;9.25;7.43;;;30.70;53.20;;;;;;4931536;29;20214;-49
2021/08/13 11:57:56;;;;;;;13.57;8.63;;;30.70;52.80;;;;;;4931391;29;20251;-49
2021/08/13 12:00:32;;;;;;;9.27;7.63;;;30.70;54.00;;;;;;4926862;29;20820;-48
2021/08/13 12:03:07;;;;;;;9.18;7.28;;;30.70;54.00;;;;;;4935047;29;20207;-48
2021/08/13 12:05:39;;;;;;;9.35;7.28;;;30.70;54.60;;;;;;4930378;29;20207;-48
2021/08/13 12:08:09;;;;;;;8.18;7.38;;;30.70;54.20;;;;;;4934857;29;20295;-48
2021/08/13 12:10:36;;;;;;;8.13;7.30;;;30.70;54.80;;;;;;4930228;29;20207;-48
2021/08/13 12:13:10;;;;;;;9.10;7.30;;;30.80;53.20;;;;;;4933964;29;20216;-48
2021/08/13 12:15:39;;;;;;;9.40;7.35;;;30.70;53.40;;;;;;4931714;29;20596;-48
2021/08/13 12:18:07;;;;;;;8.05;6.47;;;30.70;52.10;;;;;;4931970;29;20232;-48
2021/08/13 12:20:36;;;;;;;9.15;7.28;;;30.80;52.30;;;;;;4917743;29;20218;-48
2021/08/13 12:23:08;;;;;;;8.43;7.28;;;30.90;53.00;;;;;;4931123;29;20213;-49
2021/08/13 12:25:36;;;;;;;7.53;6.80;;;30.90;53.30;;;;;;4931200;29;20218;-48
2021/08/13 12:28:04;;;;;;;7.55;6.85;;;30.80;53.70;;;;;;4926512;29;20208;-49
2021/08/13 12:30:35;;;;;;;8.10;7.30;;;30.70;53.00;;;;;;4933507;29;20290;-49
2021/08/13 12:33:04;;;;;;;10.38;7.50;;;30.60;52.70;;;;;;4913525;29;20205;-49
2021/08/13 12:35:39;;;;;;;10.05;6.75;;;30.50;53.10;;;;;;4930883;29;20303;-48
2021/08/13 12:38:08;;;;;;;11.10;7.68;;;30.40;53.40;;;;;;4930752;29;20234;-47
2021/08/13 12:40:54;;;;;;;10.80;7.82;;;30.20;53.90;;;;;;4915970;29;20675;-48
2021/08/13 12:43:22;;;;;;;10.57;7.50;;;30.10;55.50;;;;;;4929122;29;20662;-48
2021/08/13 12:45:52;;;;;;;12.35;8.85;;;30.00;59.60;;;;;;4913531;29;20275;-49
2021/08/13 12:48:21;;;;;;;17.08;9.65;;;29.80;61.30;;;;;;4928472;29;20584;-49
2021/08/13 12:50:59;;;;;;;13.57;10.40;;;29.50;64.80;;;;;;4930842;29;20215;-49